sensor_id;sensor_type;location;lat;lon;timestamp;P1;durP1;ratioP1;P2;durP2;ratioP2
8312;SDS011;4194;43.408;24.626;2023-01-16T00:01:09;42.10;;;21.47;;
8312;SDS011;4194;43.408;24.626;2023-01-16T00:03:35;36.17;;;20.23;;
8312;SDS011;4194;43.408;24.626;2023-01-16T00:06:01;33.80;;;21.27;;
8312;SDS011;4194;43.408;24.626;2023-01-16T00:08:27;35.10;;;19.73;;
8312;SDS011;4194;43.408;24.626;2023-01-16T00:10:52;34.23;;;19.30;;
8312;SDS011;4194;43.408;24.626;2023-01-16T00:13:18;41.30;;;22.07;;
8312;SDS011;4194;43.408;24.626;2023-01-16T00:15:44;35.80;;;20.80;;
8312;SDS011;4194;43.408;24.626;2023-01-16T00:18:12;31.83;;;20.00;;
8312;SDS011;4194;43.408;24.626;2023-01-16T00:20:38;38.80;;;22.87;;
8312;SDS011;4194;43.408;24.626;2023-01-16T00:23:04;40.10;;;23.87;;
8312;SDS011;4194;43.408;24.626;2023-01-16T00:25:30;39.20;;;21.93;;
8312;SDS011;4194;43.408;24.626;2023-01-16T00:27:56;31.10;;;17.17;;
8312;SDS011;4194;43.408;24.626;2023-01-16T00:30:22;29.50;;;16.93;;
8312;SDS011;4194;43.408;24.626;2023-01-16T00:32:48;32.27;;;18.20;;
8312;SDS011;4194;43.408;24.626;2023-01-16T00:35:13;33.23;;;17.77;;
8312;SDS011;4194;43.408;24.626;2023-01-16T00:37:39;27.20;;;16.37;;
8312;SDS011;4194;43.408;24.626;2023-01-16T00:40:05;32.60;;;17.23;;
8312;SDS011;4194;43.408;24.626;2023-01-16T00:42:31;26.33;;;14.40;;
8312;SDS011;4194;43.408;24.626;2023-01-16T00:44:56;24.50;;;15.20;;
8312;SDS011;4194;43.408;24.626;2023-01-16T00:47:22;28.53;;;15.90;;
8312;SDS011;4194;43.408;24.626;2023-01-16T00:49:48;25.03;;;14.33;;
8312;SDS011;4194;43.408;24.626;2023-01-16T00:52:14;29.90;;;15.63;;
8312;SDS011;4194;43.408;24.626;2023-01-16T00:54:44;29.30;;;17.17;;
8312;SDS011;4194;43.408;24.626;2023-01-16T00:57:09;28.23;;;15.10;;
8312;SDS011;4194;43.408;24.626;2023-01-16T00:59:35;29.80;;;16.87;;
8312;SDS011;4194;43.408;24.626;2023-01-16T01:02:01;32.03;;;18.00;;
8312;SDS011;4194;43.408;24.626;2023-01-16T01:04:27;35.13;;;17.17;;
8312;SDS011;4194;43.408;24.626;2023-01-16T01:06:53;34.07;;;18.90;;
8312;SDS011;4194;43.408;24.626;2023-01-16T01:09:19;45.40;;;23.43;;
8312;SDS011;4194;43.408;24.626;2023-01-16T01:11:44;40.57;;;20.33;;
8312;SDS011;4194;43.408;24.626;2023-01-16T01:14:10;37.70;;;20.57;;
8312;SDS011;4194;43.408;24.626;2023-01-16T01:16:36;39.13;;;20.03;;
8312;SDS011;4194;43.408;24.626;2023-01-16T01:19:01;34.83;;;18.03;;
8312;SDS011;4194;43.408;24.626;2023-01-16T01:21:27;39.23;;;20.27;;
8312;SDS011;4194;43.408;24.626;2023-01-16T01:23:54;42.53;;;18.97;;
8312;SDS011;4194;43.408;24.626;2023-01-16T01:26:21;36.63;;;19.83;;
8312;SDS011;4194;43.408;24.626;2023-01-16T01:28:47;35.17;;;19.40;;
8312;SDS011;4194;43.408;24.626;2023-01-16T01:31:12;38.17;;;20.20;;
8312;SDS011;4194;43.408;24.626;2023-01-16T01:33:39;38.60;;;20.83;;
8312;SDS011;4194;43.408;24.626;2023-01-16T01:36:05;40.17;;;20.67;;
8312;SDS011;4194;43.408;24.626;2023-01-16T01:38:31;42.47;;;22.23;;
8312;SDS011;4194;43.408;24.626;2023-01-16T01:40:58;37.23;;;19.23;;
8312;SDS011;4194;43.408;24.626;2023-01-16T01:46:14;28.27;;;16.27;;
8312;SDS011;4194;43.408;24.626;2023-01-16T01:48:46;25.53;;;15.07;;
8312;SDS011;4194;43.408;24.626;2023-01-16T01:51:17;27.07;;;15.43;;
8312;SDS011;4194;43.408;24.626;2023-01-16T01:53:48;34.00;;;16.43;;
8312;SDS011;4194;43.408;24.626;2023-01-16T01:56:19;34.00;;;18.80;;
8312;SDS011;4194;43.408;24.626;2023-01-16T01:58:56;35.30;;;18.27;;
8312;SDS011;4194;43.408;24.626;2023-01-16T02:01:24;27.50;;;15.77;;
8312;SDS011;4194;43.408;24.626;2023-01-16T02:03:53;33.30;;;16.23;;
8312;SDS011;4194;43.408;24.626;2023-01-16T02:06:43;30.03;;;15.37;;
8312;SDS011;4194;43.408;24.626;2023-01-16T02:09:12;27.50;;;14.50;;
8312;SDS011;4194;43.408;24.626;2023-01-16T02:14:15;26.37;;;14.93;;
8312;SDS011;4194;43.408;24.626;2023-01-16T02:16:41;33.77;;;17.53;;
8312;SDS011;4194;43.408;24.626;2023-01-16T02:19:37;34.07;;;18.00;;
8312;SDS011;4194;43.408;24.626;2023-01-16T02:38:17;28.77;;;15.17;;
8312;SDS011;4194;43.408;24.626;2023-01-16T02:46:24;24.93;;;13.87;;
8312;SDS011;4194;43.408;24.626;2023-01-16T02:54:36;31.37;;;15.40;;
8312;SDS011;4194;43.408;24.626;2023-01-16T02:57:18;30.57;;;16.37;;
8312;SDS011;4194;43.408;24.626;2023-01-16T02:59:45;27.67;;;13.83;;
8312;SDS011;4194;43.408;24.626;2023-01-16T03:02:13;27.10;;;14.63;;
8312;SDS011;4194;43.408;24.626;2023-01-16T03:20:48;26.67;;;15.37;;
8312;SDS011;4194;43.408;24.626;2023-01-16T03:28:55;27.47;;;15.87;;
8312;SDS011;4194;43.408;24.626;2023-01-16T03:31:31;26.27;;;14.70;;
8312;SDS011;4194;43.408;24.626;2023-01-16T03:39:50;37.30;;;27.63;;
8312;SDS011;4194;43.408;24.626;2023-01-16T03:42:25;33.33;;;20.17;;
8312;SDS011;4194;43.408;24.626;2023-01-16T03:45:01;39.50;;;25.43;;
8312;SDS011;4194;43.408;24.626;2023-01-16T03:47:38;35.90;;;24.17;;
8312;SDS011;4194;43.408;24.626;2023-01-16T03:50:07;36.63;;;22.27;;
8312;SDS011;4194;43.408;24.626;2023-01-16T03:52:39;38.10;;;22.33;;
8312;SDS011;4194;43.408;24.626;2023-01-16T03:55:45;36.40;;;21.67;;
8312;SDS011;4194;43.408;24.626;2023-01-16T03:58:10;34.90;;;22.93;;
8312;SDS011;4194;43.408;24.626;2023-01-16T04:00:47;38.37;;;23.87;;
8312;SDS011;4194;43.408;24.626;2023-01-16T04:03:28;38.93;;;23.47;;
8312;SDS011;4194;43.408;24.626;2023-01-16T04:08:28;40.60;;;25.17;;
8312;SDS011;4194;43.408;24.626;2023-01-16T04:11:01;43.40;;;25.80;;
8312;SDS011;4194;43.408;24.626;2023-01-16T04:13:30;52.40;;;27.97;;
8312;SDS011;4194;43.408;24.626;2023-01-16T04:15:59;58.53;;;28.33;;
8312;SDS011;4194;43.408;24.626;2023-01-16T04:18:30;48.27;;;24.00;;
8312;SDS011;4194;43.408;24.626;2023-01-16T04:20:57;50.00;;;23.87;;
8312;SDS011;4194;43.408;24.626;2023-01-16T04:23:23;57.57;;;30.93;;
8312;SDS011;4194;43.408;24.626;2023-01-16T04:25:49;52.10;;;27.23;;
8312;SDS011;4194;43.408;24.626;2023-01-16T04:28:15;48.77;;;25.63;;
8312;SDS011;4194;43.408;24.626;2023-01-16T04:30:41;44.13;;;24.03;;
8312;SDS011;4194;43.408;24.626;2023-01-16T04:33:06;54.63;;;27.67;;
8312;SDS011;4194;43.408;24.626;2023-01-16T04:35:32;44.03;;;27.60;;
8312;SDS011;4194;43.408;24.626;2023-01-16T04:37:59;49.57;;;28.10;;
8312;SDS011;4194;43.408;24.626;2023-01-16T04:40:24;55.80;;;31.00;;
8312;SDS011;4194;43.408;24.626;2023-01-16T04:42:50;52.47;;;31.47;;
8312;SDS011;4194;43.408;24.626;2023-01-16T04:45:16;61.03;;;33.53;;
8312;SDS011;4194;43.408;24.626;2023-01-16T04:47:46;61.53;;;32.43;;
8312;SDS011;4194;43.408;24.626;2023-01-16T04:50:12;50.60;;;29.33;;
8312;SDS011;4194;43.408;24.626;2023-01-16T04:52:39;48.47;;;27.60;;
8312;SDS011;4194;43.408;24.626;2023-01-16T04:55:05;47.03;;;28.03;;
8312;SDS011;4194;43.408;24.626;2023-01-16T04:57:32;47.67;;;26.13;;
8312;SDS011;4194;43.408;24.626;2023-01-16T04:59:57;40.70;;;26.00;;
8312;SDS011;4194;43.408;24.626;2023-01-16T05:02:23;40.87;;;23.83;;
8312;SDS011;4194;43.408;24.626;2023-01-16T05:04:48;34.03;;;19.93;;
8312;SDS011;4194;43.408;24.626;2023-01-16T05:07:14;36.53;;;21.23;;
8312;SDS011;4194;43.408;24.626;2023-01-16T05:09:40;33.37;;;20.00;;
8312;SDS011;4194;43.408;24.626;2023-01-16T05:12:05;34.80;;;21.27;;
8312;SDS011;4194;43.408;24.626;2023-01-16T05:14:31;39.37;;;21.50;;
8312;SDS011;4194;43.408;24.626;2023-01-16T05:16:57;36.77;;;21.37;;
8312;SDS011;4194;43.408;24.626;2023-01-16T05:19:22;36.10;;;20.90;;
8312;SDS011;4194;43.408;24.626;2023-01-16T05:21:48;36.40;;;20.60;;
8312;SDS011;4194;43.408;24.626;2023-01-16T05:24:14;35.60;;;19.77;;
8312;SDS011;4194;43.408;24.626;2023-01-16T05:26:39;33.37;;;16.73;;
8312;SDS011;4194;43.408;24.626;2023-01-16T05:29:05;31.20;;;16.97;;
8312;SDS011;4194;43.408;24.626;2023-01-16T05:31:31;37.03;;;18.63;;
8312;SDS011;4194;43.408;24.626;2023-01-16T05:33:56;33.47;;;18.10;;
8312;SDS011;4194;43.408;24.626;2023-01-16T05:36:22;34.60;;;19.77;;
8312;SDS011;4194;43.408;24.626;2023-01-16T05:38:48;32.33;;;18.60;;
8312;SDS011;4194;43.408;24.626;2023-01-16T05:41:15;36.43;;;21.23;;
8312;SDS011;4194;43.408;24.626;2023-01-16T05:43:41;34.73;;;21.10;;
8312;SDS011;4194;43.408;24.626;2023-01-16T05:46:06;33.87;;;20.27;;
8312;SDS011;4194;43.408;24.626;2023-01-16T05:48:32;40.10;;;22.20;;
8312;SDS011;4194;43.408;24.626;2023-01-16T05:51:01;46.83;;;26.33;;
8312;SDS011;4194;43.408;24.626;2023-01-16T05:53:27;57.97;;;28.70;;
8312;SDS011;4194;43.408;24.626;2023-01-16T05:55:55;49.90;;;30.27;;
8312;SDS011;4194;43.408;24.626;2023-01-16T05:58:21;48.67;;;28.63;;
8312;SDS011;4194;43.408;24.626;2023-01-16T06:00:46;50.33;;;27.13;;
8312;SDS011;4194;43.408;24.626;2023-01-16T06:03:12;55.97;;;31.37;;
8312;SDS011;4194;43.408;24.626;2023-01-16T06:05:40;46.67;;;29.93;;
8312;SDS011;4194;43.408;24.626;2023-01-16T06:08:06;58.90;;;30.20;;
8312;SDS011;4194;43.408;24.626;2023-01-16T06:10:32;57.20;;;31.30;;
8312;SDS011;4194;43.408;24.626;2023-01-16T06:12:59;59.33;;;32.77;;
8312;SDS011;4194;43.408;24.626;2023-01-16T06:15:26;59.47;;;33.63;;
8312;SDS011;4194;43.408;24.626;2023-01-16T06:17:51;66.13;;;34.00;;
8312;SDS011;4194;43.408;24.626;2023-01-16T06:20:19;68.17;;;34.60;;
8312;SDS011;4194;43.408;24.626;2023-01-16T06:22:45;70.50;;;39.13;;
8312;SDS011;4194;43.408;24.626;2023-01-16T06:25:10;70.50;;;36.47;;
8312;SDS011;4194;43.408;24.626;2023-01-16T06:27:36;57.20;;;32.03;;
8312;SDS011;4194;43.408;24.626;2023-01-16T06:30:03;54.07;;;31.53;;
8312;SDS011;4194;43.408;24.626;2023-01-16T06:32:30;60.60;;;30.37;;
8312;SDS011;4194;43.408;24.626;2023-01-16T06:34:55;45.83;;;27.23;;
8312;SDS011;4194;43.408;24.626;2023-01-16T06:37:21;39.33;;;25.60;;
8312;SDS011;4194;43.408;24.626;2023-01-16T06:39:47;40.77;;;24.43;;
8312;SDS011;4194;43.408;24.626;2023-01-16T06:42:12;43.57;;;26.47;;
8312;SDS011;4194;43.408;24.626;2023-01-16T06:44:38;47.63;;;26.33;;
8312;SDS011;4194;43.408;24.626;2023-01-16T06:47:03;52.70;;;27.70;;
8312;SDS011;4194;43.408;24.626;2023-01-16T06:49:31;48.57;;;26.60;;
8312;SDS011;4194;43.408;24.626;2023-01-16T06:51:57;53.43;;;25.47;;
8312;SDS011;4194;43.408;24.626;2023-01-16T06:54:22;53.10;;;22.40;;
8312;SDS011;4194;43.408;24.626;2023-01-16T06:56:48;41.77;;;21.97;;
8312;SDS011;4194;43.408;24.626;2023-01-16T06:59:14;38.73;;;22.70;;
8312;SDS011;4194;43.408;24.626;2023-01-16T07:01:39;48.70;;;24.97;;
8312;SDS011;4194;43.408;24.626;2023-01-16T07:04:05;44.10;;;22.83;;
8312;SDS011;4194;43.408;24.626;2023-01-16T07:06:31;32.00;;;16.93;;
8312;SDS011;4194;43.408;24.626;2023-01-16T07:08:58;36.27;;;18.33;;
8312;SDS011;4194;43.408;24.626;2023-01-16T07:11:23;40.27;;;20.70;;
8312;SDS011;4194;43.408;24.626;2023-01-16T07:13:49;61.53;;;30.37;;
8312;SDS011;4194;43.408;24.626;2023-01-16T07:16:35;58.90;;;29.83;;
8312;SDS011;4194;43.408;24.626;2023-01-16T07:19:19;69.47;;;34.90;;
8312;SDS011;4194;43.408;24.626;2023-01-16T07:22:03;144.40;;;67.23;;
8312;SDS011;4194;43.408;24.626;2023-01-16T07:24:47;93.17;;;45.97;;
8312;SDS011;4194;43.408;24.626;2023-01-16T07:27:13;68.60;;;37.43;;
8312;SDS011;4194;43.408;24.626;2023-01-16T07:29:40;66.93;;;40.60;;
8312;SDS011;4194;43.408;24.626;2023-01-16T07:32:06;73.57;;;42.77;;
8312;SDS011;4194;43.408;24.626;2023-01-16T07:34:32;71.27;;;41.67;;
8312;SDS011;4194;43.408;24.626;2023-01-16T07:37:00;67.30;;;41.33;;
8312;SDS011;4194;43.408;24.626;2023-01-16T07:39:25;72.27;;;42.93;;
8312;SDS011;4194;43.408;24.626;2023-01-16T07:41:51;76.87;;;41.80;;
8312;SDS011;4194;43.408;24.626;2023-01-16T07:44:17;72.60;;;36.80;;
8312;SDS011;4194;43.408;24.626;2023-01-16T07:46:42;66.17;;;35.90;;
8312;SDS011;4194;43.408;24.626;2023-01-16T07:49:08;61.03;;;38.90;;
8312;SDS011;4194;43.408;24.626;2023-01-16T07:51:34;57.93;;;33.70;;
8312;SDS011;4194;43.408;24.626;2023-01-16T07:53:59;54.33;;;32.77;;
8312;SDS011;4194;43.408;24.626;2023-01-16T07:56:25;54.77;;;31.67;;
8312;SDS011;4194;43.408;24.626;2023-01-16T07:58:50;57.90;;;32.13;;
8312;SDS011;4194;43.408;24.626;2023-01-16T08:01:19;55.63;;;31.03;;
8312;SDS011;4194;43.408;24.626;2023-01-16T08:03:44;53.63;;;32.23;;
8312;SDS011;4194;43.408;24.626;2023-01-16T08:06:10;53.93;;;29.10;;
8312;SDS011;4194;43.408;24.626;2023-01-16T08:08:36;50.97;;;29.00;;
8312;SDS011;4194;43.408;24.626;2023-01-16T08:11:01;52.07;;;28.77;;
8312;SDS011;4194;43.408;24.626;2023-01-16T08:13:47;45.50;;;28.07;;
8312;SDS011;4194;43.408;24.626;2023-01-16T08:16:13;51.55;;;32.33;;
8312;SDS011;4194;43.408;24.626;2023-01-16T08:18:38;47.13;;;29.87;;
8312;SDS011;4194;43.408;24.626;2023-01-16T08:21:04;53.00;;;27.53;;
8312;SDS011;4194;43.408;24.626;2023-01-16T08:23:30;43.50;;;26.53;;
8312;SDS011;4194;43.408;24.626;2023-01-16T08:25:55;45.40;;;28.20;;
8312;SDS011;4194;43.408;24.626;2023-01-16T08:28:25;43.87;;;29.40;;
8312;SDS011;4194;43.408;24.626;2023-01-16T08:30:51;57.40;;;29.70;;
8312;SDS011;4194;43.408;24.626;2023-01-16T08:33:16;40.47;;;26.77;;
8312;SDS011;4194;43.408;24.626;2023-01-16T08:35:42;39.80;;;26.30;;
8312;SDS011;4194;43.408;24.626;2023-01-16T08:38:08;42.17;;;26.67;;
8312;SDS011;4194;43.408;24.626;2023-01-16T08:40:33;50.67;;;28.97;;
8312;SDS011;4194;43.408;24.626;2023-01-16T08:42:59;60.43;;;32.57;;
8312;SDS011;4194;43.408;24.626;2023-01-16T08:45:43;58.90;;;32.60;;
8312;SDS011;4194;43.408;24.626;2023-01-16T08:48:27;61.53;;;31.87;;
8312;SDS011;4194;43.408;24.626;2023-01-16T08:51:13;68.80;;;33.70;;
8312;SDS011;4194;43.408;24.626;2023-01-16T08:53:47;64.20;;;33.97;;
8312;SDS011;4194;43.408;24.626;2023-01-16T08:56:16;66.27;;;38.13;;
8312;SDS011;4194;43.408;24.626;2023-01-16T08:58:42;56.30;;;33.73;;
8312;SDS011;4194;43.408;24.626;2023-01-16T09:01:08;63.30;;;34.57;;
8312;SDS011;4194;43.408;24.626;2023-01-16T09:03:33;74.43;;;42.87;;
8312;SDS011;4194;43.408;24.626;2023-01-16T09:05:59;51.57;;;29.57;;
8312;SDS011;4194;43.408;24.626;2023-01-16T09:08:25;48.07;;;29.77;;
8312;SDS011;4194;43.408;24.626;2023-01-16T09:10:52;65.43;;;31.60;;
8312;SDS011;4194;43.408;24.626;2023-01-16T09:13:36;50.27;;;28.43;;
8312;SDS011;4194;43.408;24.626;2023-01-16T09:16:21;48.00;;;29.90;;
8312;SDS011;4194;43.408;24.626;2023-01-16T09:18:48;65.87;;;36.77;;
8312;SDS011;4194;43.408;24.626;2023-01-16T09:21:14;50.43;;;29.90;;
8312;SDS011;4194;43.408;24.626;2023-01-16T09:23:40;44.17;;;29.47;;
8312;SDS011;4194;43.408;24.626;2023-01-16T09:26:07;55.43;;;39.30;;
8312;SDS011;4194;43.408;24.626;2023-01-16T09:28:33;51.63;;;28.33;;
8312;SDS011;4194;43.408;24.626;2023-01-16T09:30:59;54.93;;;32.47;;
8312;SDS011;4194;43.408;24.626;2023-01-16T09:33:24;54.23;;;32.30;;
8312;SDS011;4194;43.408;24.626;2023-01-16T09:35:50;51.30;;;28.40;;
8312;SDS011;4194;43.408;24.626;2023-01-16T09:38:16;53.23;;;28.57;;
8312;SDS011;4194;43.408;24.626;2023-01-16T09:40:45;49.27;;;30.13;;
8312;SDS011;4194;43.408;24.626;2023-01-16T09:46:01;59.63;;;33.07;;
8312;SDS011;4194;43.408;24.626;2023-01-16T09:48:38;49.57;;;30.40;;
8312;SDS011;4194;43.408;24.626;2023-01-16T09:51:48;62.43;;;34.03;;
8312;SDS011;4194;43.408;24.626;2023-01-16T09:55:01;53.50;;;30.03;;
8312;SDS011;4194;43.408;24.626;2023-01-16T09:57:49;55.97;;;32.27;;
8312;SDS011;4194;43.408;24.626;2023-01-16T10:00:35;57.47;;;35.57;;
8312;SDS011;4194;43.408;24.626;2023-01-16T10:03:01;61.93;;;37.07;;
8312;SDS011;4194;43.408;24.626;2023-01-16T10:05:38;64.67;;;39.20;;
8312;SDS011;4194;43.408;24.626;2023-01-16T10:08:19;56.27;;;33.20;;
8312;SDS011;4194;43.408;24.626;2023-01-16T10:24:13;74.07;;;40.87;;
8312;SDS011;4194;43.408;24.626;2023-01-16T10:26:58;67.70;;;40.97;;
8312;SDS011;4194;43.408;24.626;2023-01-16T10:29:53;69.77;;;40.77;;
8312;SDS011;4194;43.408;24.626;2023-01-16T10:37:45;92.93;;;47.23;;
8312;SDS011;4194;43.408;24.626;2023-01-16T10:40:16;86.93;;;47.83;;
8312;SDS011;4194;43.408;24.626;2023-01-16T10:42:43;81.10;;;44.27;;
8312;SDS011;4194;43.408;24.626;2023-01-16T10:45:32;75.93;;;40.63;;
8312;SDS011;4194;43.408;24.626;2023-01-16T10:48:19;88.73;;;40.87;;
8312;SDS011;4194;43.408;24.626;2023-01-16T10:51:03;75.67;;;40.90;;
8312;SDS011;4194;43.408;24.626;2023-01-16T10:53:31;74.47;;;44.40;;
8312;SDS011;4194;43.408;24.626;2023-01-16T10:55:59;88.33;;;46.23;;
8312;SDS011;4194;43.408;24.626;2023-01-16T11:00:58;90.03;;;46.77;;
8312;SDS011;4194;43.408;24.626;2023-01-16T11:03:42;78.00;;;44.07;;
8312;SDS011;4194;43.408;24.626;2023-01-16T11:06:18;78.03;;;45.13;;
8312;SDS011;4194;43.408;24.626;2023-01-16T11:08:57;88.17;;;45.73;;
8312;SDS011;4194;43.408;24.626;2023-01-16T11:11:27;98.60;;;49.57;;
8312;SDS011;4194;43.408;24.626;2023-01-16T11:14:13;101.20;;;49.33;;
8312;SDS011;4194;43.408;24.626;2023-01-16T11:20:05;86.83;;;47.70;;
8312;SDS011;4194;43.408;24.626;2023-01-16T11:22:44;97.20;;;50.20;;
8312;SDS011;4194;43.408;24.626;2023-01-16T11:25:16;105.20;;;50.07;;
8312;SDS011;4194;43.408;24.626;2023-01-16T11:27:42;87.23;;;49.10;;
8312;SDS011;4194;43.408;24.626;2023-01-16T11:30:18;94.20;;;49.60;;
8312;SDS011;4194;43.408;24.626;2023-01-16T11:32:45;77.37;;;47.00;;
8312;SDS011;4194;43.408;24.626;2023-01-16T11:38:04;101.70;;;48.70;;
8312;SDS011;4194;43.408;24.626;2023-01-16T11:40:54;86.20;;;51.07;;
8312;SDS011;4194;43.408;24.626;2023-01-16T11:43:23;97.17;;;47.57;;
8312;SDS011;4194;43.408;24.626;2023-01-16T11:48:54;127.20;;;47.57;;
8312;SDS011;4194;43.408;24.626;2023-01-16T11:51:24;101.17;;;50.43;;
8312;SDS011;4194;43.408;24.626;2023-01-16T11:54:02;93.70;;;47.67;;
8312;SDS011;4194;43.408;24.626;2023-01-16T12:05:16;106.77;;;53.73;;
8312;SDS011;4194;43.408;24.626;2023-01-16T12:08:17;96.63;;;52.73;;
8312;SDS011;4194;43.408;24.626;2023-01-16T12:16:49;125.63;;;59.03;;
8312;SDS011;4194;43.408;24.626;2023-01-16T12:25:20;233.13;;;110.97;;
8312;SDS011;4194;43.408;24.626;2023-01-16T12:34:12;139.57;;;74.53;;
8312;SDS011;4194;43.408;24.626;2023-01-16T12:42:05;151.33;;;73.20;;
8312;SDS011;4194;43.408;24.626;2023-01-16T12:47:48;138.97;;;70.90;;
8312;SDS011;4194;43.408;24.626;2023-01-16T12:58:47;164.63;;;72.37;;
8312;SDS011;4194;43.408;24.626;2023-01-16T13:01:48;120.30;;;60.70;;
8312;SDS011;4194;43.408;24.626;2023-01-16T13:06:53;124.63;;;56.97;;
8312;SDS011;4194;43.408;24.626;2023-01-16T13:09:24;111.07;;;54.07;;
8312;SDS011;4194;43.408;24.626;2023-01-16T13:12:24;100.07;;;53.67;;
8312;SDS011;4194;43.408;24.626;2023-01-16T13:15:13;100.40;;;49.17;;
8312;SDS011;4194;43.408;24.626;2023-01-16T13:18:02;93.57;;;45.30;;
8312;SDS011;4194;43.408;24.626;2023-01-16T13:20:36;82.17;;;45.43;;
8312;SDS011;4194;43.408;24.626;2023-01-16T13:23:04;61.97;;;36.70;;
8312;SDS011;4194;43.408;24.626;2023-01-16T13:25:39;59.23;;;31.50;;
8312;SDS011;4194;43.408;24.626;2023-01-16T13:30:58;26.07;;;19.63;;
8312;SDS011;4194;43.408;24.626;2023-01-16T13:33:29;26.40;;;17.93;;
8312;SDS011;4194;43.408;24.626;2023-01-16T13:42:00;15.77;;;12.23;;
8312;SDS011;4194;43.408;24.626;2023-01-16T13:44:30;11.43;;;8.87;;
8312;SDS011;4194;43.408;24.626;2023-01-16T13:47:29;8.73;;;7.20;;
8312;SDS011;4194;43.408;24.626;2023-01-16T13:50:03;8.80;;;7.23;;
8312;SDS011;4194;43.408;24.626;2023-01-16T13:52:30;9.90;;;8.23;;
8312;SDS011;4194;43.408;24.626;2023-01-16T13:55:00;11.63;;;9.33;;
8312;SDS011;4194;43.408;24.626;2023-01-16T13:57:27;11.47;;;8.57;;
8312;SDS011;4194;43.408;24.626;2023-01-16T13:59:55;10.27;;;8.33;;
8312;SDS011;4194;43.408;24.626;2023-01-16T14:02:27;12.70;;;8.85;;
8312;SDS011;4194;43.408;24.626;2023-01-16T14:10:43;12.77;;;7.40;;
8312;SDS011;4194;43.408;24.626;2023-01-16T14:13:34;10.27;;;8.17;;
8312;SDS011;4194;43.408;24.626;2023-01-16T14:24:03;19.17;;;10.57;;
8312;SDS011;4194;43.408;24.626;2023-01-16T14:28:59;22.20;;;14.23;;
8312;SDS011;4194;43.408;24.626;2023-01-16T14:31:39;21.03;;;15.53;;
8312;SDS011;4194;43.408;24.626;2023-01-16T14:34:15;16.93;;;12.50;;
8312;SDS011;4194;43.408;24.626;2023-01-16T14:36:44;14.13;;;10.83;;
8312;SDS011;4194;43.408;24.626;2023-01-16T14:41:59;19.27;;;12.70;;
8312;SDS011;4194;43.408;24.626;2023-01-16T14:47:45;13.57;;;9.33;;
8312;SDS011;4194;43.408;24.626;2023-01-16T14:53:43;21.47;;;14.33;;
8312;SDS011;4194;43.408;24.626;2023-01-16T14:56:33;21.77;;;16.43;;
8312;SDS011;4194;43.408;24.626;2023-01-16T15:01:50;17.80;;;10.73;;
8312;SDS011;4194;43.408;24.626;2023-01-16T15:10:19;16.70;;;11.43;;
8312;SDS011;4194;43.408;24.626;2023-01-16T15:15:54;20.17;;;13.00;;
8312;SDS011;4194;43.408;24.626;2023-01-16T15:18:24;16.27;;;10.97;;
8312;SDS011;4194;43.408;24.626;2023-01-16T15:21:19;16.93;;;11.20;;
8312;SDS011;4194;43.408;24.626;2023-01-16T15:24:04;22.03;;;12.67;;
8312;SDS011;4194;43.408;24.626;2023-01-16T15:26:51;20.30;;;12.97;;
8312;SDS011;4194;43.408;24.626;2023-01-16T15:29:51;15.47;;;11.93;;
8312;SDS011;4194;43.408;24.626;2023-01-16T15:32:20;13.30;;;9.60;;
8312;SDS011;4194;43.408;24.626;2023-01-16T15:34:47;13.50;;;10.20;;
8312;SDS011;4194;43.408;24.626;2023-01-16T15:37:33;14.97;;;9.80;;
8312;SDS011;4194;43.408;24.626;2023-01-16T15:39:59;14.67;;;9.67;;
8312;SDS011;4194;43.408;24.626;2023-01-16T15:42:26;13.53;;;9.77;;
8312;SDS011;4194;43.408;24.626;2023-01-16T15:45:22;16.17;;;10.90;;
8312;SDS011;4194;43.408;24.626;2023-01-16T15:50:57;40.30;;;18.57;;
8312;SDS011;4194;43.408;24.626;2023-01-16T15:53:39;22.77;;;13.00;;
8312;SDS011;4194;43.408;24.626;2023-01-16T15:59:26;24.43;;;13.67;;
8312;SDS011;4194;43.408;24.626;2023-01-16T16:02:17;61.40;;;25.20;;
8312;SDS011;4194;43.408;24.626;2023-01-16T16:04:41;55.57;;;25.07;;
8312;SDS011;4194;43.408;24.626;2023-01-16T16:07:07;31.27;;;17.67;;
8312;SDS011;4194;43.408;24.626;2023-01-16T16:09:33;32.87;;;20.50;;
8312;SDS011;4194;43.408;24.626;2023-01-16T16:12:01;11.53;;;8.63;;
8312;SDS011;4194;43.408;24.626;2023-01-16T16:14:33;10.27;;;7.23;;
8312;SDS011;4194;43.408;24.626;2023-01-16T16:17:38;11.77;;;8.30;;
8312;SDS011;4194;43.408;24.626;2023-01-16T16:23:09;29.77;;;14.37;;
8312;SDS011;4194;43.408;24.626;2023-01-16T16:26:01;32.83;;;14.53;;
8312;SDS011;4194;43.408;24.626;2023-01-16T16:33:26;24.87;;;13.77;;
8312;SDS011;4194;43.408;24.626;2023-01-16T16:35:54;21.27;;;14.40;;
8312;SDS011;4194;43.408;24.626;2023-01-16T16:43:46;28.63;;;17.30;;
8312;SDS011;4194;43.408;24.626;2023-01-16T16:49:34;28.23;;;19.60;;
8312;SDS011;4194;43.408;24.626;2023-01-16T16:51:41;46.13;;;29.33;;
8312;SDS011;4194;43.408;24.626;2023-01-16T16:56:36;41.77;;;25.70;;
8312;SDS011;4194;43.408;24.626;2023-01-16T16:59:04;39.27;;;20.90;;
8312;SDS011;4194;43.408;24.626;2023-01-16T17:01:32;26.30;;;16.97;;
8312;SDS011;4194;43.408;24.626;2023-01-16T17:04:00;35.70;;;19.77;;
8312;SDS011;4194;43.408;24.626;2023-01-16T17:06:28;30.07;;;18.03;;
8312;SDS011;4194;43.408;24.626;2023-01-16T17:08:57;33.93;;;18.93;;
8312;SDS011;4194;43.408;24.626;2023-01-16T17:11:23;32.33;;;20.07;;
8312;SDS011;4194;43.408;24.626;2023-01-16T17:13:49;41.80;;;23.80;;
8312;SDS011;4194;43.408;24.626;2023-01-16T17:16:15;48.33;;;27.20;;
8312;SDS011;4194;43.408;24.626;2023-01-16T17:18:42;39.27;;;25.90;;
8312;SDS011;4194;43.408;24.626;2023-01-16T17:21:09;40.77;;;23.90;;
8312;SDS011;4194;43.408;24.626;2023-01-16T17:23:40;51.07;;;23.63;;
8312;SDS011;4194;43.408;24.626;2023-01-16T17:26:06;48.70;;;25.27;;
8312;SDS011;4194;43.408;24.626;2023-01-16T17:28:35;55.70;;;29.47;;
8312;SDS011;4194;43.408;24.626;2023-01-16T17:31:00;59.93;;;32.50;;
8312;SDS011;4194;43.408;24.626;2023-01-16T17:33:26;68.10;;;38.20;;
8312;SDS011;4194;43.408;24.626;2023-01-16T17:35:54;70.03;;;35.73;;
8312;SDS011;4194;43.408;24.626;2023-01-16T17:38:36;49.40;;;30.60;;
8312;SDS011;4194;43.408;24.626;2023-01-16T17:41:03;45.30;;;27.37;;
8312;SDS011;4194;43.408;24.626;2023-01-16T17:43:31;47.07;;;28.63;;
8312;SDS011;4194;43.408;24.626;2023-01-16T17:46:16;46.17;;;28.07;;
8312;SDS011;4194;43.408;24.626;2023-01-16T17:48:46;69.67;;;41.03;;
8312;SDS011;4194;43.408;24.626;2023-01-16T17:51:13;49.93;;;32.60;;
8312;SDS011;4194;43.408;24.626;2023-01-16T17:53:39;53.23;;;32.60;;
8312;SDS011;4194;43.408;24.626;2023-01-16T17:56:06;62.07;;;36.83;;
8312;SDS011;4194;43.408;24.626;2023-01-16T17:58:33;63.17;;;37.80;;
8312;SDS011;4194;43.408;24.626;2023-01-16T18:01:16;52.43;;;33.30;;
8312;SDS011;4194;43.408;24.626;2023-01-16T18:03:51;48.83;;;25.27;;
8312;SDS011;4194;43.408;24.626;2023-01-16T18:06:23;46.33;;;25.83;;
8312;SDS011;4194;43.408;24.626;2023-01-16T18:08:50;42.57;;;23.60;;
8312;SDS011;4194;43.408;24.626;2023-01-16T18:11:17;52.47;;;24.63;;
8312;SDS011;4194;43.408;24.626;2023-01-16T18:14:03;49.60;;;28.50;;
8312;SDS011;4194;43.408;24.626;2023-01-16T18:16:47;56.93;;;31.03;;
8312;SDS011;4194;43.408;24.626;2023-01-16T18:19:32;62.20;;;30.57;;
8312;SDS011;4194;43.408;24.626;2023-01-16T18:21:58;52.93;;;30.57;;
8312;SDS011;4194;43.408;24.626;2023-01-16T18:26:57;63.13;;;34.43;;
8312;SDS011;4194;43.408;24.626;2023-01-16T18:29:24;60.57;;;36.33;;
8312;SDS011;4194;43.408;24.626;2023-01-16T18:31:49;74.30;;;39.80;;
8312;SDS011;4194;43.408;24.626;2023-01-16T18:34:34;79.20;;;47.50;;